Time;durP1;ratioP1;P1;durP2;ratioP2;P2;SDS_P1;SDS_P2;PMS_P1;PMS_P2;Temp;Humidity;BMP_temperature;BMP_pressure;BME280_temperature;BME280_humidity;BME280_pressure;Samples;Min_cycle;Max_cycle;Signal;HPM_P1;HPM_P2
2024/04/04 00:00:45;;;;;;;6.35;2.97;;;410.20;2201.60;;;;;;5038653;28;20028;-77
2024/04/04 00:03:11;;;;;;;8.18;3.20;;;410.20;2176.00;;;;;;5029087;28;20056;-78
2024/04/04 00:05:37;;;;;;;8.48;3.33;;;410.40;2176.00;;;;;;5030568;28;20361;-77
2024/04/04 00:08:04;;;;;;;8.27;3.10;;;410.40;2176.00;;;;;;5014664;28;20033;-78
2024/04/04 00:10:30;;;;;;;8.38;2.72;;;410.30;2201.60;;;;;;5008631;28;20026;-77
2024/04/04 00:12:57;;;;;;;9.05;3.03;;;410.40;2252.80;;;;;;5019753;28;20041;-77
2024/04/04 00:15:23;;;;;;;6.72;2.65;;;410.40;2278.40;;;;;;5033907;28;20021;-77
2024/04/04 00:17:49;;;;;;;6.53;2.75;;;410.30;2304.00;;;;;;5033911;28;20030;-77
2024/04/04 00:20:16;;;;;;;10.52;3.05;;;410.20;2355.20;;;;;;5026136;28;20535;-76
2024/04/04 00:22:45;;;;;;;6.78;3.35;;;410.20;2355.20;;;;;;5030612;28;20018;-77
2024/04/04 00:25:12;;;;;;;5.28;2.63;;;410.20;2355.20;;;;;;5031894;28;20069;-78
2024/04/04 00:27:38;;;;;;;9.07;2.60;;;410.20;2355.20;;;;;;5034670;28;20014;-78
2024/04/04 00:30:04;;;;;;;6.20;2.50;;;410.20;2355.20;;;;;;5031525;28;20021;-78
2024/04/04 00:32:30;;;;;;;8.77;2.92;;;410.30;2355.20;;;;;;5024582;28;20101;-78
2024/04/04 00:34:56;;;;;;;9.25;3.03;;;410.30;2355.20;;;;;;5034000;28;20108;-78
2024/04/04 00:37:22;;;;;;;7.13;2.90;;;410.20;2355.20;;;;;;5029527;28;20462;-76
2024/04/04 00:39:48;;;;;;;11.60;3.38;;;410.20;2355.20;;;;;;5033442;28;20025;-78
2024/04/04 00:42:14;;;;;;;7.43;2.97;;;410.10;2355.20;;;;;;5013412;28;20037;-77
2024/04/04 00:44:40;;;;;;;11.43;3.17;;;410.10;2355.20;;;;;;5028496;28;20014;-77
2024/04/04 00:47:06;;;;;;;8.25;2.97;;;410.00;2355.20;;;;;;5029829;28;20076;-77
2024/04/04 00:49:32;;;;;;;6.22;3.15;;;410.00;2355.20;;;;;;5025604;28;20394;-80
2024/04/04 00:51:58;;;;;;;8.07;3.42;;;410.00;2355.20;;;;;;5007924;28;20041;-79
2024/04/04 00:54:25;;;;;;;9.10;4.07;;;410.10;2355.20;;;;;;5010383;28;20401;-78
2024/04/04 00:56:52;;;;;;;9.88;3.30;;;410.00;2355.20;;;;;;5041096;28;20490;-78
2024/04/04 00:59:18;;;;;;;11.57;3.85;;;409.70;2355.20;;;;;;5011971;28;20021;-77
2024/04/04 01:01:44;;;;;;;9.30;3.65;;;409.80;2355.20;;;;;;5025679;28;20026;-77
2024/04/04 01:04:10;;;;;;;8.90;4.05;;;409.80;2355.20;;;;;;5009021;28;20249;-77
2024/04/04 01:06:39;;;;;;;8.73;3.60;;;409.90;2355.20;;;;;;5033125;28;20116;-77
2024/04/04 01:09:05;;;;;;;8.15;3.58;;;410.00;2355.20;;;;;;5006687;28;20042;-77
2024/04/04 01:11:30;;;;;;;13.95;3.90;;;410.00;2355.20;;;;;;5026907;28;20388;-77
2024/04/04 01:13:56;;;;;;;9.65;4.13;;;410.10;2355.20;;;;;;5020541;28;20474;-77
2024/04/04 01:16:22;;;;;;;10.27;3.10;;;410.00;2355.20;;;;;;5023425;28;20123;-77
2024/04/04 01:18:49;;;;;;;10.05;4.18;;;410.00;2355.20;;;;;;5040193;28;20446;-78
2024/04/04 01:21:15;;;;;;;9.35;3.58;;;410.10;2355.20;;;;;;5017526;28;20025;-78
2024/04/04 01:23:42;;;;;;;10.85;3.67;;;410.00;2355.20;;;;;;5039619;28;20059;-78
2024/04/04 01:26:08;;;;;;;8.57;3.50;;;410.10;2355.20;;;;;;5037406;28;20025;-77
2024/04/04 01:28:35;;;;;;;8.65;3.50;;;410.00;2355.20;;;;;;5036662;28;20033;-78
2024/04/04 01:31:01;;;;;;;9.73;3.38;;;410.00;2355.20;;;;;;5055229;28;20028;-78
2024/04/04 01:33:27;;;;;;;10.90;3.22;;;410.00;2355.20;;;;;;5055530;28;20047;-78
2024/04/04 01:35:52;;;;;;;8.30;3.03;;;410.20;2355.20;;;;;;5037154;28;20486;-78
2024/04/04 01:38:18;;;;;;;7.72;3.22;;;410.20;2355.20;;;;;;5037229;28;20474;-79
2024/04/04 01:40:44;;;;;;;6.93;2.78;;;410.20;2355.20;;;;;;5054670;28;20025;-77
2024/04/04 01:43:10;;;;;;;13.63;3.10;;;410.20;2355.20;;;;;;5054983;28;20033;-78
2024/04/04 01:45:36;;;;;;;9.20;3.35;;;410.30;2355.20;;;;;;5037415;28;20043;-78
2024/04/04 01:48:02;;;;;;;8.15;3.55;;;410.30;2355.20;;;;;;5050278;28;20052;-78
2024/04/04 01:50:28;;;;;;;8.15;3.22;;;410.20;2355.20;;;;;;5044971;28;20024;-78
2024/04/04 01:56:19;;;;;;;6.20;3.33;;;410.40;2355.20;;;;;;3193646;23;20156;-77
2024/04/04 01:58:45;;;;;;;11.35;3.25;;;410.20;2355.20;;;;;;4951064;28;20346;-77
2024/04/04 02:01:11;;;;;;;11.18;3.40;;;410.20;2355.20;;;;;;4949337;28;20038;-77
2024/04/04 02:03:37;;;;;;;9.45;3.65;;;410.20;2355.20;;;;;;4957465;28;20081;-77
2024/04/04 02:06:04;;;;;;;9.63;2.85;;;410.20;2355.20;;;;;;4956829;28;20532;-77
2024/04/04 02:08:30;;;;;;;7.93;3.00;;;410.20;2355.20;;;;;;4957291;28;20049;-77
2024/04/04 02:10:56;;;;;;;6.50;2.55;;;410.30;2355.20;;;;;;4955556;28;20027;-77
2024/04/04 02:13:22;;;;;;;4.43;2.40;;;410.30;2355.20;;;;;;4956114;28;20389;-77
2024/04/04 02:15:47;;;;;;;7.38;2.58;;;410.30;2355.20;;;;;;4956709;28;20358;-77
2024/04/04 02:18:15;;;;;;;10.05;3.10;;;410.30;2355.20;;;;;;4973641;28;20070;-77
2024/04/04 02:20:41;;;;;;;8.50;2.25;;;410.40;2278.40;;;;;;4974123;28;20042;-77
2024/04/04 02:23:08;;;;;;;7.28;2.45;;;410.30;2227.20;;;;;;4974084;28;20528;-78
2024/04/04 02:25:36;;;;;;;6.50;2.50;;;410.40;2150.40;;;;;;4974074;28;20139;-77
2024/04/04 02:28:04;;;;;;;5.05;2.17;;;410.30;2099.20;;;;;;4956945;28;20027;-77
2024/04/04 02:30:30;;;;;;;5.68;2.05;;;410.40;2048.00;;;;;;4973831;28;20034;-77
2024/04/04 02:32:56;;;;;;;6.53;2.10;;;410.40;2022.40;;;;;;4956583;28;20043;-77
2024/04/04 02:35:23;;;;;;;6.18;2.90;;;410.40;2048.00;;;;;;4973692;28;20031;-77
2024/04/04 02:37:51;;;;;;;8.50;2.75;;;410.50;1945.60;;;;;;4973589;28;20027;-77
2024/04/04 02:40:18;;;;;;;7.07;2.08;;;410.50;1920.00;;;;;;4973503;28;20050;-77
2024/04/04 02:42:43;;;;;;;5.20;2.58;;;410.50;1945.60;;;;;;4956633;28;20027;-77
2024/04/04 02:45:09;;;;;;;6.47;3.00;;;410.50;1971.20;;;;;;4956475;28;20034;-77
2024/04/04 02:47:35;;;;;;;6.72;2.53;;;410.40;1971.20;;;;;;4973473;28;20031;-77
2024/04/04 02:50:01;;;;;;;6.05;2.47;;;410.30;2022.40;;;;;;4956475;28;20390;-77
2024/04/04 02:52:27;;;;;;;7.07;2.40;;;410.00;2124.80;;;;;;4956452;28;20070;-77
2024/04/04 02:54:54;;;;;;;5.15;2.55;;;409.90;2227.20;;;;;;4973639;28;20081;-77
2024/04/04 02:57:20;;;;;;;5.63;2.50;;;409.90;2329.60;;;;;;4978834;28;20042;-77
2024/04/04 02:59:46;;;;;;;3.63;2.10;;;409.90;2355.20;;;;;;4975426;28;20109;-77
2024/04/04 03:02:12;;;;;;;7.15;3.15;;;409.90;2355.20;;;;;;4975030;28;20109;-77
2024/04/04 03:04:39;;;;;;;6.32;2.83;;;409.90;2355.20;;;;;;4975723;28;20033;-78
2024/04/04 03:07:05;;;;;;;11.13;3.78;;;409.80;2355.20;;;;;;4992773;28;20485;-77
2024/04/04 03:09:31;;;;;;;10.95;2.60;;;409.70;2355.20;;;;;;4976159;28;20021;-78
2024/04/04 03:11:58;;;;;;;6.57;2.28;;;409.70;2355.20;;;;;;4975706;28;20499;-77
2024/04/04 03:14:24;;;;;;;8.60;3.00;;;409.80;2355.20;;;;;;4992976;28;20030;-77
2024/04/04 03:16:49;;;;;;;10.88;2.90;;;409.70;2355.20;;;;;;4992474;28;20403;-77
2024/04/04 03:19:15;;;;;;;6.40;2.90;;;409.60;2355.20;;;;;;4992282;28;20540;-77
2024/04/04 03:21:41;;;;;;;7.95;3.03;;;409.70;2355.20;;;;;;4992719;28;20077;-77
2024/04/04 03:24:07;;;;;;;6.85;2.65;;;384.90;2329.60;;;;;;4992794;28;20372;-77
2024/04/04 03:26:33;;;;;;;8.65;2.83;;;409.60;2355.20;;;;;;4992112;28;20092;-77
2024/04/04 03:29:01;;;;;;;7.70;2.88;;;409.70;2355.20;;;;;;4975369;28;20033;-77
2024/04/04 03:31:27;;;;;;;8.75;2.55;;;384.90;2329.60;;;;;;4974850;28;20031;-76
2024/04/04 03:33:54;;;;;;;7.00;2.97;;;409.60;2355.20;;;;;;4992541;28;20034;-77
2024/04/04 03:36:20;;;;;;;9.43;3.20;;;409.60;2355.20;;;;;;4992603;28;20128;-77
2024/04/04 03:38:46;;;;;;;7.25;2.45;;;384.90;2329.60;;;;;;4975446;28;20033;-76
2024/04/04 03:41:12;;;;;;;5.82;2.47;;;384.90;2329.60;;;;;;4975019;28;20126;-76
2024/04/04 03:43:38;;;;;;;16.13;4.50;;;384.80;2329.60;;;;;;4992859;28;20497;-77
2024/04/04 03:46:05;;;;;;;5.13;2.53;;;384.70;2329.60;;;;;;4992502;28;20018;-76
2024/04/04 03:48:33;;;;;;;7.05;2.90;;;384.70;2329.60;;;;;;4992695;28;20022;-77
2024/04/04 03:50:59;;;;;;;10.00;3.42;;;384.60;2329.60;;;;;;4991956;28;20101;-77
2024/04/04 03:53:25;;;;;;;10.80;3.03;;;384.60;2329.60;;;;;;4975182;28;20037;-77
2024/04/04 03:55:51;;;;;;;5.25;2.88;;;384.60;2329.60;;;;;;4992023;28;20026;-77
2024/04/04 03:58:18;;;;;;;6.10;2.83;;;384.60;2329.60;;;;;;4974665;28;20451;-78
2024/04/04 04:00:45;;;;;;;5.53;2.58;;;384.50;2329.60;;;;;;4974627;28;20037;-77
2024/04/04 04:03:11;;;;;;;8.05;2.60;;;384.50;2329.60;;;;;;4975099;28;20034;-77
2024/04/04 04:05:37;;;;;;;7.25;2.60;;;384.40;2329.60;;;;;;4974662;28;20109;-77
2024/04/04 04:08:03;;;;;;;12.23;3.28;;;384.60;2329.60;;;;;;4979878;28;20066;-77
2024/04/04 04:10:30;;;;;;;6.53;2.90;;;384.40;2329.60;;;;;;4974330;28;20050;-77
2024/04/04 04:12:57;;;;;;;11.05;3.83;;;384.30;2329.60;;;;;;4974559;28;20022;-77
2024/04/04 04:15:23;;;;;;;9.45;3.17;;;384.20;2329.60;;;;;;4966834;28;20096;-76
2024/04/04 04:17:49;;;;;;;5.95;2.67;;;384.20;2329.60;;;;;;4991660;28;20062;-78
2024/04/04 04:23:00;;;;;;;7.50;3.13;;;384.30;2329.60;;;;;;4988165;28;20479;-78
2024/04/04 04:25:26;;;;;;;7.60;1.70;;;384.50;2329.60;;;;;;4974875;28;20038;-77
2024/04/04 04:27:52;;;;;;;7.10;2.00;;;384.60;2329.60;;;;;;4974264;28;20060;-78
2024/04/04 04:30:18;;;;;;;5.10;1.80;;;384.60;2329.60;;;;;;4991992;28;20054;-78
2024/04/04 04:32:44;;;;;;;6.50;1.80;;;384.70;2329.60;;;;;;4991462;28;20030;-77
2024/04/04 04:35:10;;;;;;;3.83;2.00;;;384.70;2329.60;;;;;;4991934;28;20038;-77
2024/04/04 04:37:36;;;;;;;3.95;1.92;;;384.90;2329.60;;;;;;4974920;28;20042;-77
2024/04/04 04:40:02;;;;;;;7.53;1.98;;;384.80;2329.60;;;;;;4974832;28;20484;-77
2024/04/04 04:42:28;;;;;;;6.82;2.83;;;384.70;2329.60;;;;;;4975428;28;20157;-77
2024/04/04 04:44:53;;;;;;;3.97;2.03;;;384.70;2329.60;;;;;;4978280;28;20444;-77
2024/04/04 04:47:19;;;;;;;5.95;1.63;;;384.70;2329.60;;;;;;4995370;28;20022;-77
2024/04/04 04:49:45;;;;;;;8.40;1.90;;;384.70;2329.60;;;;;;4977442;28;20061;-76
2024/04/04 04:52:11;;;;;;;7.43;2.28;;;384.70;2329.60;;;;;;4995579;28;20105;-76
2024/04/04 04:54:37;;;;;;;6.15;2.55;;;384.70;2329.60;;;;;;4995170;28;20429;-77
2024/04/04 04:57:03;;;;;;;7.95;2.38;;;384.70;2329.60;;;;;;4977372;28;20141;-77
2024/04/04 04:59:30;;;;;;;5.70;2.00;;;384.70;2329.60;;;;;;4969181;28;20023;-77
2024/04/04 05:01:56;;;;;;;5.35;2.25;;;384.70;2329.60;;;;;;4972371;28;20469;-76
2024/04/04 05:04:22;;;;;;;6.50;2.10;;;384.70;2329.60;;;;;;4965652;28;20039;-76
2024/04/04 05:06:48;;;;;;;8.45;2.35;;;384.70;2329.60;;;;;;4975570;28;20413;-77
2024/04/04 05:09:15;;;;;;;3.95;2.00;;;384.70;2329.60;;;;;;4966545;28;20030;-76
2024/04/04 05:11:41;;;;;;;5.57;2.03;;;384.70;2329.60;;;;;;4967495;28;20027;-78
2024/04/04 05:14:07;;;;;;;4.90;2.00;;;384.70;2329.60;;;;;;4958879;28;20038;-79
2024/04/04 05:16:34;;;;;;;8.70;3.13;;;384.70;2329.60;;;;;;4966869;28;20068;-77
2024/04/04 05:19:01;;;;;;;7.20;2.65;;;384.90;2329.60;;;;;;4973872;28;20030;-76
2024/04/04 05:21:27;;;;;;;6.63;2.50;;;384.90;2329.60;;;;;;4963156;28;20388;-76
2024/04/04 05:23:53;;;;;;;5.57;2.25;;;384.90;2329.60;;;;;;4977275;28;20039;-76
2024/04/04 05:26:19;;;;;;;9.52;2.90;;;384.90;2329.60;;;;;;4972854;28;20551;-77
2024/04/04 05:28:47;;;;;;;8.18;2.55;;;384.90;2329.60;;;;;;4978647;28;20063;-76
2024/04/04 05:31:13;;;;;;;7.78;2.17;;;384.90;2329.60;;;;;;4980720;28;20033;-77
2024/04/04 05:33:39;;;;;;;5.53;1.98;;;409.60;2355.20;;;;;;4980244;28;20031;-77
2024/04/04 05:36:05;;;;;;;5.63;2.08;;;409.70;2355.20;;;;;;4968299;28;20098;-78
2024/04/04 05:38:31;;;;;;;5.28;2.65;;;409.80;2355.20;;;;;;4971096;28;20050;-80
2024/04/04 05:40:57;;;;;;;6.32;2.13;;;409.90;2355.20;;;;;;4961450;28;20019;-77
2024/04/04 05:43:23;;;;;;;6.15;2.03;;;410.00;2355.20;;;;;;4959168;28;20502;-76
2024/04/04 05:45:49;;;;;;;7.38;2.25;;;410.20;2355.20;;;;;;4968398;28;20488;-76
2024/04/04 05:48:14;;;;;;;6.40;1.90;;;410.20;2355.20;;;;;;4964590;28;20428;-76
2024/04/04 05:50:41;;;;;;;5.53;1.95;;;410.40;2355.20;;;;;;4974059;28;20062;-77
2024/04/04 05:53:06;;;;;;;7.63;2.20;;;410.50;2355.20;;;;;;4959963;28;20057;-76
2024/04/04 05:55:32;;;;;;;6.20;1.60;;;410.40;2355.20;;;;;;4980427;28;20069;-78
2024/04/04 05:57:58;;;;;;;3.28;1.80;;;410.50;2355.20;;;;;;4963443;28;20047;-77
2024/04/04 06:00:24;;;;;;;4.63;1.92;;;410.40;2329.60;;;;;;4977780;28;20102;-74
2024/04/04 06:02:50;;;;;;;5.10;1.48;;;410.40;2304.00;;;;;;4970542;28;20031;-75
2024/04/04 06:05:16;;;;;;;2.83;1.45;;;410.40;2304.00;;;;;;4968754;28;20022;-76
2024/04/04 06:07:41;;;;;;;5.68;1.90;;;410.40;2252.80;;;;;;4980678;28;20030;-78
2024/04/04 06:10:07;;;;;;;6.65;1.60;;;410.30;2227.20;;;;;;4982976;28;20082;-76
2024/04/04 06:12:33;;;;;;;3.90;1.63;;;410.30;2201.60;;;;;;4960805;28;20393;-75
2024/04/04 06:14:59;;;;;;;5.78;2.20;;;410.30;2201.60;;;;;;4975082;28;20022;-76
2024/04/04 06:17:31;;;;;;;7.93;1.63;;;410.40;2227.20;;;;;;4963025;28;20067;-75
2024/04/04 06:19:56;;;;;;;11.70;1.77;;;410.50;2176.00;;;;;;4969500;28;20035;-76
2024/04/04 06:22:22;;;;;;;5.80;1.90;;;435.20;2176.00;;;;;;4971744;28;20433;-75
2024/04/04 06:24:48;;;;;;;5.63;1.60;;;435.20;2176.00;;;;;;4971122;28;20532;-77
2024/04/04 06:27:14;;;;;;;4.65;1.85;;;435.20;2124.80;;;;;;4976272;28;20551;-77
2024/04/04 06:29:41;;;;;;;8.45;2.08;;;435.30;2099.20;;;;;;4964026;28;20018;-76
2024/04/04 06:32:07;;;;;;;3.22;1.60;;;435.60;2048.00;;;;;;4963634;28;20114;-76
2024/04/04 06:34:36;;;;;;;5.03;1.77;;;435.60;2022.40;;;;;;4970035;28;20608;-75
2024/04/04 06:37:02;;;;;;;4.20;1.52;;;435.60;1971.20;;;;;;4977074;28;20034;-76
2024/04/04 06:39:28;;;;;;;4.53;1.77;;;435.70;1945.60;;;;;;4973589;28;20049;-75
2024/04/04 06:41:54;;;;;;;4.28;1.52;;;435.80;1971.20;;;;;;4964246;28;20038;-75
2024/04/04 06:44:20;;;;;;;11.05;1.85;;;435.90;1945.60;;;;;;4946070;28;20611;-76
2024/04/04 06:46:45;;;;;;;4.40;1.48;;;435.80;1971.20;;;;;;4969464;28;20023;-76
2024/04/04 06:49:11;;;;;;;5.03;1.80;;;435.70;1971.20;;;;;;4976819;28;20030;-75
2024/04/04 06:51:37;;;;;;;7.18;1.98;;;435.60;1945.60;;;;;;4967371;28;20034;-76
2024/04/04 06:54:03;;;;;;;5.00;1.70;;;435.60;1996.80;;;;;;4976976;28;20030;-76
2024/04/04 06:56:29;;;;;;;4.85;1.70;;;435.60;1996.80;;;;;;4973000;28;20027;-76
2024/04/04 06:58:55;;;;;;;3.55;1.40;;;435.70;1971.20;;;;;;4970319;28;20050;-76
2024/04/04 07:01:21;;;;;;;3.35;1.55;;;435.70;1996.80;;;;;;4972042;28;20051;-75
2024/04/04 07:03:46;;;;;;;6.40;1.40;;;435.70;1971.20;;;;;;4979197;28;20109;-75
2024/04/04 07:06:12;;;;;;;4.95;1.20;;;435.70;1996.80;;;;;;4971734;28;20027;-76
2024/04/04 07:08:40;;;;;;;7.43;1.88;;;435.70;1971.20;;;;;;4981121;28;20070;-79
2024/04/04 07:11:06;;;;;;;3.95;1.67;;;435.80;1971.20;;;;;;4983270;28;20058;-76
2024/04/04 07:13:36;;;;;;;2.92;1.20;;;435.90;1971.20;;;;;;4960296;28;20042;-78
2024/04/04 07:16:04;;;;;;;6.35;1.50;;;436.00;1971.20;;;;;;4969943;28;20022;-76
2024/04/04 07:18:31;;;;;;;6.13;1.63;;;436.10;1945.60;;;;;;4978202;28;20030;-77
2024/04/04 07:20:57;;;;;;;4.82;1.50;;;436.10;1945.60;;;;;;4949871;28;20114;-77
2024/04/04 07:23:23;;;;;;;4.93;1.80;;;460.80;1945.60;;;;;;4970596;28;20041;-76
2024/04/04 07:25:53;;;;;;;6.03;1.67;;;461.00;1945.60;;;;;;4978966;28;20165;-75
2024/04/04 07:28:19;;;;;;;4.80;1.50;;;461.10;1894.40;;;;;;4976756;28;20045;-75
2024/04/04 07:30:45;;;;;;;4.38;1.38;;;461.20;1894.40;;;;;;4971156;28;20050;-78
2024/04/04 07:33:11;;;;;;;3.92;1.58;;;461.40;1894.40;;;;;;4972365;28;20082;-76
2024/04/04 07:35:38;;;;;;;5.60;1.67;;;461.40;1894.40;;;;;;4970737;28;20039;-75
2024/04/04 07:38:05;;;;;;;3.35;1.50;;;461.20;1868.80;;;;;;4962290;28;20479;-78
2024/04/04 07:40:36;;;;;;;8.65;1.60;;;461.10;1920.00;;;;;;4970445;28;20369;-79
2024/04/04 07:43:03;;;;;;;4.97;1.92;;;461.20;1945.60;;;;;;4953955;28;20023;-79
2024/04/04 07:45:30;;;;;;;5.38;1.63;;;461.00;1945.60;;;;;;4956501;28;20162;-76
2024/04/04 07:47:56;;;;;;;5.47;1.52;;;461.00;1945.60;;;;;;4960134;28;20417;-77
2024/04/04 07:50:23;;;;;;;6.85;2.00;;;460.80;1920.00;;;;;;4967053;28;20110;-76
2024/04/04 07:52:51;;;;;;;8.52;1.88;;;460.80;1920.00;;;;;;4965255;28;20038;-77
2024/04/04 07:55:17;;;;;;;3.25;1.70;;;460.80;1945.60;;;;;;4960929;28;20389;-75
2024/04/04 07:57:43;;;;;;;3.85;1.52;;;460.80;1945.60;;;;;;4972382;28;20416;-76
2024/04/04 08:00:13;;;;;;;3.67;1.55;;;436.10;1945.60;;;;;;4963401;28;20532;-75
2024/04/04 08:02:42;;;;;;;4.18;1.50;;;436.10;1920.00;;;;;;4956222;28;20035;-78
2024/04/04 08:05:08;;;;;;;7.40;1.92;;;460.80;1971.20;;;;;;4972396;28;20421;-78
2024/04/04 08:07:38;;;;;;;5.60;1.70;;;460.80;1945.60;;;;;;4965790;28;20031;-76
2024/04/04 08:10:06;;;;;;;5.30;1.73;;;460.80;1945.60;;;;;;4976237;28;20018;-76
2024/04/04 08:12:35;;;;;;;3.15;1.50;;;460.90;1945.60;;;;;;4970967;28;20090;-77
2024/04/04 08:15:09;;;;;;;5.72;1.73;;;461.10;1971.20;;;;;;4953265;28;20027;-76
2024/04/04 08:17:36;;;;;;;3.85;1.77;;;461.20;1945.60;;;;;;4976533;28;20455;-77
2024/04/04 08:20:03;;;;;;;7.18;1.92;;;461.20;1894.40;;;;;;4978937;28;20080;-75
2024/04/04 08:22:29;;;;;;;4.97;1.92;;;461.40;1920.00;;;;;;4977178;28;20023;-78
2024/04/04 08:24:55;;;;;;;3.83;1.67;;;461.40;1920.00;;;;;;4971801;28;20054;-81
2024/04/04 08:27:21;;;;;;;3.30;1.60;;;461.50;1894.40;;;;;;4972618;28;20030;-76
2024/04/04 08:29:50;;;;;;;4.90;1.77;;;461.40;1868.80;;;;;;4959609;28;20074;-78
2024/04/04 08:32:16;;;;;;;5.30;2.08;;;461.60;1868.80;;;;;;4961630;28;20392;-77
2024/04/04 08:34:43;;;;;;;5.63;1.92;;;486.40;1920.00;;;;;;4977884;28;20061;-77
2024/04/04 08:37:12;;;;;;;2.78;1.50;;;486.70;1843.20;;;;;;4957101;28;20381;-77
2024/04/04 08:39:41;;;;;;;8.05;2.15;;;486.80;1868.80;;;;;;4975541;28;20047;-76
2024/04/04 08:42:08;;;;;;;5.93;1.85;;;486.80;1868.80;;;;;;4970900;28;20054;-77
2024/04/04 08:44:34;;;;;;;5.25;1.77;;;487.00;1843.20;;;;;;4973895;28;20090;-76
2024/04/04 08:47:00;;;;;;;5.80;2.15;;;487.10;1817.60;;;;;;4972274;28;20130;-76
2024/04/04 08:49:27;;;;;;;4.10;1.88;;;486.90;1817.60;;;;;;4967925;28;20519;-76
2024/04/04 08:51:54;;;;;;;3.20;1.50;;;487.00;1843.20;;;;;;4977975;28;20146;-75
2024/04/04 08:54:21;;;;;;;4.25;1.85;;;487.00;1817.60;;;;;;4969259;28;20393;-75
2024/04/04 08:56:49;;;;;;;4.15;1.77;;;487.10;1843.20;;;;;;4957716;28;20043;-75
2024/04/04 08:59:16;;;;;;;4.25;2.05;;;487.30;1766.40;;;;;;4966696;28;20473;-76
2024/04/04 09:01:41;;;;;;;3.25;1.80;;;512.10;1766.40;;;;;;4967329;28;20033;-77
2024/04/04 09:04:07;;;;;;;4.82;2.00;;;512.00;1766.40;;;;;;4964615;28;20094;-81
2024/04/04 09:06:34;;;;;;;5.60;1.92;;;512.30;1766.40;;;;;;4975634;28;20034;-77
2024/04/04 09:09:00;;;;;;;7.32;1.90;;;512.60;1766.40;;;;;;4965394;28;20520;-77
2024/04/04 09:11:26;;;;;;;8.20;2.30;;;512.90;1715.20;;;;;;4949934;28;20114;-76
2024/04/04 09:14:05;;;;;;;3.90;1.88;;;;;;;;;;4974438;28;20046;-75
2024/04/04 09:16:32;;;;;;;4.18;1.90;;;538.00;1689.60;;;;;;4978245;28;20038;-78
2024/04/04 09:19:14;;;;;;;6.22;2.42;;;537.80;1689.60;;;;;;4966714;28;20022;-78
2024/04/04 09:21:44;;;;;;;4.25;2.00;;;512.90;1689.60;;;;;;4971552;28;20026;-76
2024/04/04 09:24:15;;;;;;;15.93;11.85;;;537.60;1715.20;;;;;;4979571;28;20033;-76
2024/04/04 09:26:43;;;;;;;29.50;20.98;;;538.20;1664.00;;;;;;4967172;28;20026;-77
2024/04/04 09:29:09;;;;;;;68.53;50.78;;;538.50;1612.80;;;;;;4954217;28;20492;-77
2024/04/04 09:31:36;;;;;;;15.18;11.98;;;538.30;1612.80;;;;;;4971038;28;20108;-76
2024/04/04 09:34:06;;;;;;;9.07;5.40;;;538.20;1664.00;;;;;;4961577;28;20038;-76
2024/04/04 09:36:39;;;;;;;12.50;10.35;;;538.20;1638.40;;;;;;4952158;28;20046;-78
2024/04/04 09:39:09;;;;;;;19.15;11.93;;;538.00;1612.80;;;;;;4959548;28;20030;-76
2024/04/04 09:41:37;;;;;;;5.55;2.47;;;563.20;1664.00;;;;;;4971863;28;20023;-77
2024/04/04 09:44:05;;;;;;;4.18;2.05;;;563.80;1587.20;;;;;;4967209;28;20038;-77
2024/04/04 09:46:34;;;;;;;4.55;2.58;;;589.00;1561.60;;;;;;4975887;28;20480;-76
2024/04/04 09:49:01;;;;;;;6.25;2.72;;;588.80;1536.00;;;;;;4957313;28;20071;-77
2024/04/04 09:51:27;;;;;;;8.82;5.03;;;564.10;1536.00;;;;;;4977474;28;20026;-80
2024/04/04 09:53:54;;;;;;;5.65;4.20;;;564.00;1536.00;;;;;;4972882;28;20023;-80
2024/04/04 09:56:23;;;;;;;5.10;1.83;;;564.00;1510.40;;;;;;4974933;28;20031;-77
2024/04/04 09:58:49;;;;;;;10.30;4.80;;;589.10;1484.80;;;;;;4969864;28;20054;-77
2024/04/04 10:01:23;;;;;;;5.25;3.08;;;589.50;1459.20;;;;;;4957878;28;20026;-77
2024/04/04 10:03:59;;;;;;;5.75;3.35;;;589.40;1484.80;;;;;;4974153;28;20472;-76
2024/04/04 10:06:32;;;;;;;7.10;3.90;;;614.50;1459.20;;;;;;4957866;28;20032;-77
2024/04/04 10:08:58;;;;;;;7.05;1.92;;;;;;;;;;4951752;28;20481;-77
2024/04/04 10:11:33;;;;;;;4.82;2.35;;;615.30;1459.20;;;;;;4964266;28;20034;-76
2024/04/04 10:14:02;;;;;;;24.30;18.58;;;615.20;1408.00;;;;;;4977928;28;20019;-76
2024/04/04 10:16:38;;;;;;;4.43;2.03;;;615.30;1356.80;;;;;;4964517;28;20109;-77
2024/04/04 10:19:14;;;;;;;;;;;640.00;1331.20;;;;;;4945968;28;20031;-76
2024/04/04 10:21:40;;;;;;;3.97;1.60;;;615.20;1331.20;;;;;;4975355;28;19910;-76
2024/04/04 10:24:09;;;;;;;3.63;1.90;;;615.30;1331.20;;;;;;4971785;28;20026;-76
2024/04/04 10:26:36;;;;;;;2.85;1.40;;;615.20;1305.60;;;;;;4957251;28;20046;-75
2024/04/04 10:29:03;;;;;;;3.30;2.25;;;640.00;1305.60;;;;;;4976518;28;20026;-75
2024/04/04 10:31:30;;;;;;;6.07;2.15;;;640.20;1331.20;;;;;;4967862;28;20031;-75
2024/04/04 10:34:09;;;;;;;5.00;1.77;;;640.50;1280.00;;;;;;4973785;28;20392;-76
2024/04/04 10:36:39;;;;;;;4.00;1.30;;;640.90;1254.40;;;;;;4965589;28;20035;-76
2024/04/04 10:39:23;;;;;;;4.38;1.30;;;640.50;1254.40;;;;;;4965130;28;20025;-76
2024/04/04 10:41:51;;;;;;;2.63;1.27;;;640.70;1280.00;;;;;;4965112;28;20027;-75
2024/04/04 10:44:21;;;;;;;2.40;1.20;;;640.90;1280.00;;;;;;4950624;28;20030;-77
2024/04/04 10:46:55;;;;;;;3.45;1.58;;;640.90;1254.40;;;;;;4965600;28;20019;-83
2024/04/04 10:49:27;;;;;;;2.78;1.45;;;665.80;1280.00;;;;;;4957574;28;20034;-78
2024/04/04 10:51:59;;;;;;;3.50;1.50;;;666.30;1305.60;;;;;;4955545;28;20039;-79
2024/04/04 10:54:26;;;;;;;4.53;1.90;;;665.60;1331.20;;;;;;4955436;28;20493;-78
2024/04/04 10:56:51;;;;;;;2.50;1.63;;;640.50;1305.60;;;;;;4977189;28;20046;-77
2024/04/04 10:59:19;;;;;;;3.97;1.42;;;640.40;1305.60;;;;;;4972433;28;20029;-78
2024/04/04 11:01:46;;;;;;;3.20;0.88;;;640.00;1331.20;;;;;;4968648;28;20027;-81
2024/04/04 11:04:12;;;;;;;2.28;1.10;;;614.80;1356.80;;;;;;4956467;28;20037;-75
2024/04/04 11:06:45;;;;;;;2.08;1.02;;;589.70;1382.40;;;;;;4984096;28;20124;-76
2024/04/04 11:09:21;;;;;;;2.45;1.40;;;589.50;1408.00;;;;;;4967888;28;20026;-75
2024/04/04 11:11:49;;;;;;;2.92;1.30;;;589.00;1433.60;;;;;;4971473;28;20495;-77
2024/04/04 11:14:18;;;;;;;7.57;1.48;;;588.90;1459.20;;;;;;4971334;28;20046;-76
2024/04/04 11:16:44;;;;;;;3.33;1.00;;;589.70;1408.00;;;;;;4962752;28;20034;-77
2024/04/04 11:19:11;;;;;;;0.70;0.50;;;614.70;1356.80;;;;;;4970443;28;20027;-76
2024/04/04 11:21:38;;;;;;;2.85;1.20;;;589.60;1382.40;;;;;;4974203;28;20082;-75
2024/04/04 11:24:04;;;;;;;2.53;1.20;;;588.90;1433.60;;;;;;4974586;28;20030;-76
2024/04/04 11:26:31;;;;;;;7.68;1.27;;;564.10;1459.20;;;;;;4967049;28;20102;-76
2024/04/04 11:29:00;;;;;;;2.30;1.02;;;563.90;1484.80;;;;;;4958359;28;20035;-76
2024/04/04 11:31:27;;;;;;;3.40;1.50;;;563.90;1484.80;;;;;;4969741;28;20026;-76
2024/04/04 11:33:53;;;;;;;3.22;1.23;;;589.50;1459.20;;;;;;4972936;28;20023;-77
2024/04/04 11:36:19;;;;;;;1.92;0.80;;;589.70;1408.00;;;;;;4962918;28;20047;-76
2024/04/04 11:38:45;;;;;;;2.17;1.00;;;589.40;1408.00;;;;;;4960469;28;20035;-77
2024/04/04 11:41:11;;;;;;;5.15;1.23;;;588.90;1433.60;;;;;;4972460;28;20034;-79
2024/04/04 11:43:38;;;;;;;2.05;1.23;;;564.10;1459.20;;;;;;4967987;28;20530;-78
2024/04/04 11:46:07;;;;;;;2.95;1.05;;;563.90;1459.20;;;;;;4980388;28;20030;-77
2024/04/04 11:48:34;;;;;;;5.05;1.00;;;563.80;1459.20;;;;;;4956213;28;20030;-75
2024/04/04 11:50:59;;;;;;;1.95;1.25;;;589.20;1484.80;;;;;;4946987;28;20039;-77
2024/04/04 11:53:25;;;;;;;1.42;0.90;;;589.20;1433.60;;;;;;4970620;28;20022;-76
2024/04/04 11:55:55;;;;;;;2.03;1.05;;;589.00;1433.60;;;;;;4971882;28;20030;-76
2024/04/04 11:58:26;;;;;;;2.55;1.45;;;588.80;1433.60;;;;;;4958467;28;20055;-76
2024/04/04 12:00:55;;;;;;;4.10;1.20;;;589.30;1433.60;;;;;;4971720;28;20023;-76
2024/04/04 12:03:21;;;;;;;2.63;1.05;;;588.90;1459.20;;;;;;4974932;28;20019;-76
2024/04/04 12:05:47;;;;;;;3.75;1.50;;;589.50;1433.60;;;;;;4970670;28;20504;-76
2024/04/04 12:08:13;;;;;;;5.55;1.23;;;614.80;1356.80;;;;;;4967857;28;20050;-76
2024/04/04 12:10:38;;;;;;;2.38;1.38;;;615.30;1356.80;;;;;;4963346;28;20047;-82
2024/04/04 12:13:05;;;;;;;2.38;1.13;;;640.50;1305.60;;;;;;4964214;28;20114;-79
2024/04/04 12:15:31;;;;;;;2.45;1.10;;;640.90;1305.60;;;;;;4971306;28;20019;-76
2024/04/04 12:20:41;;;;;;;2.45;1.17;;;665.60;1280.00;;;;;;4972559;28;20033;-75
2024/04/04 12:23:07;;;;;;;4.90;1.13;;;640.90;1280.00;;;;;;4972543;28;20030;-76
2024/04/04 12:25:33;;;;;;;3.03;1.30;;;665.70;1280.00;;;;;;4973389;28;20023;-75